createdAt,value
2023-02-14T00:02:13.690Z,99.30
2023-02-14T00:04:44.349Z,99.31
2023-02-14T00:07:14.686Z,99.23
2023-02-14T00:09:42.633Z,99.30
2023-02-14T00:12:12.393Z,99.17
2023-02-14T00:15:01.482Z,99.24
2023-02-14T00:17:30.041Z,99.31
2023-02-14T00:20:00.041Z,99.36
2023-02-14T00:22:28.045Z,99.39
2023-02-14T00:24:56.643Z,99.12
2023-02-14T00:27:25.184Z,99.29
2023-02-14T00:29:54.889Z,99.32
2023-02-14T00:32:23.184Z,99.30
2023-02-14T00:34:53.977Z,99.17
2023-02-14T00:37:22.267Z,99.07
2023-02-14T00:39:50.334Z,98.81
2023-02-14T00:42:18.337Z,98.50
2023-02-14T00:44:47.052Z,98.29
2023-02-14T00:47:15.126Z,98.23
2023-02-14T00:49:44.514Z,98.09
2023-02-14T00:52:12.530Z,97.96
2023-02-14T00:54:41.654Z,97.84
2023-02-14T00:57:09.852Z,97.65
2023-02-14T00:59:38.207Z,97.41
2023-02-14T01:02:06.614Z,97.27
2023-02-14T01:04:35.438Z,97.06
2023-02-14T01:07:03.625Z,97.09
2023-02-14T01:09:31.988Z,96.86
2023-02-14T01:12:03.578Z,96.89
2023-02-14T01:14:31.926Z,96.65
2023-02-14T01:17:02.685Z,96.45
2023-02-14T01:19:31.408Z,96.35
2023-02-14T01:21:59.529Z,96.38
2023-02-14T01:24:27.572Z,96.34
2023-02-14T01:26:55.642Z,96.31
2023-02-14T01:29:23.623Z,96.16
2023-02-14T01:31:53.597Z,96.12
2023-02-14T01:34:43.778Z,96.07
2023-02-14T01:37:13.409Z,95.92
2023-02-14T01:39:42.514Z,95.97
2023-02-14T01:42:11.048Z,95.91
2023-02-14T01:44:40.529Z,95.72
2023-02-14T01:47:08.935Z,95.71
2023-02-14T01:49:43.427Z,95.68
2023-02-14T01:52:23.309Z,95.53
2023-02-14T01:54:54.095Z,95.50
2023-02-14T01:57:22.200Z,95.54
2023-02-14T01:59:55.327Z,95.58
2023-02-14T02:02:24.058Z,95.55
2023-02-14T02:04:54.195Z,95.42
2023-02-14T02:07:24.199Z,95.38
2023-02-14T02:09:55.062Z,95.19
2023-02-14T02:12:25.032Z,95.26
2023-02-14T02:14:54.864Z,95.32
2023-02-14T02:17:31.883Z,95.38
2023-02-14T02:20:18.784Z,95.33
2023-02-14T02:23:11.489Z,95.19
2023-02-14T02:25:52.332Z,95.05
2023-02-14T02:28:48.462Z,95.20
2023-02-14T02:31:39.772Z,95.26
2023-02-14T02:34:26.248Z,95.27
2023-02-14T02:37:19.088Z,95.16
2023-02-14T02:40:06.204Z,95.21
2023-02-14T02:43:02.707Z,95.23
2023-02-14T02:45:59.660Z,95.29
2023-02-14T02:48:34.699Z,95.24
2023-02-14T02:51:22.824Z,95.36
2023-02-14T02:53:59.599Z,95.38
2023-02-14T02:56:46.197Z,95.50
2023-02-14T02:59:28.692Z,95.44
2023-02-14T03:02:18.144Z,95.47
2023-02-14T03:04:59.585Z,95.59
2023-02-14T03:07:37.086Z,95.56
2023-02-14T03:10:19.690Z,95.47
2023-02-14T03:12:56.913Z,95.66
2023-02-14T03:15:42.339Z,96.18
2023-02-14T03:19:02.139Z,97.08
2023-02-14T03:21:44.520Z,98.38
2023-02-14T03:24:47.426Z,99.46
2023-02-14T03:27:33.277Z,100.00
2023-02-14T03:30:16.837Z,100.00
2023-02-14T03:33:13.222Z,100.00
2023-02-14T03:36:02.033Z,100.00
2023-02-14T03:38:32.418Z,100.00
2023-02-14T03:41:02.698Z,100.00
2023-02-14T03:43:33.906Z,100.00
2023-02-14T03:46:10.538Z,100.00
2023-02-14T03:48:38.849Z,100.00
2023-02-14T03:51:07.648Z,100.00
2023-02-14T03:53:38.962Z,100.00
2023-02-14T03:56:23.747Z,100.00
2023-02-14T03:58:54.981Z,100.00
2023-02-14T04:01:36.488Z,100.00
2023-02-14T04:04:04.527Z,100.00
2023-02-14T04:06:33.219Z,100.00
2023-02-14T04:09:01.386Z,100.00
2023-02-14T04:11:35.684Z,100.00
2023-02-14T04:14:04.670Z,100.00
2023-02-14T04:16:56.407Z,100.00
2023-02-14T04:19:24.537Z,100.00
2023-02-14T04:21:53.029Z,100.00
2023-02-14T04:24:20.979Z,100.00
2023-02-14T04:27:09.918Z,100.00
2023-02-14T04:29:42.172Z,100.00
2023-02-14T04:32:14.791Z,100.00
2023-02-14T04:34:43.147Z,100.00
2023-02-14T04:37:11.239Z,100.00
2023-02-14T04:39:41.354Z,100.00
2023-02-14T04:42:10.747Z,100.00
2023-02-14T04:44:39.845Z,100.00
2023-02-14T04:47:08.102Z,100.00
2023-02-14T04:49:36.552Z,100.00
2023-02-14T04:52:05.345Z,100.00
2023-02-14T04:54:35.632Z,100.00
2023-02-14T04:57:03.977Z,100.00
2023-02-14T04:59:33.386Z,100.00
2023-02-14T05:02:01.538Z,100.00
2023-02-14T05:04:29.810Z,100.00
2023-02-14T05:06:57.783Z,100.00
2023-02-14T05:09:26.303Z,100.00
2023-02-14T05:11:54.569Z,100.00
2023-02-14T05:14:22.780Z,100.00
2023-02-14T05:16:51.988Z,100.00
2023-02-14T05:19:20.524Z,100.00
2023-02-14T05:21:49.484Z,100.00
2023-02-14T05:24:17.574Z,100.00
2023-02-14T05:26:48.801Z,100.00
2023-02-14T05:29:17.304Z,100.00
2023-02-14T05:31:46.075Z,100.00
2023-02-14T05:34:15.628Z,100.00
2023-02-14T05:36:43.959Z,100.00
2023-02-14T05:39:14.597Z,100.00
2023-02-14T05:41:43.636Z,100.00
2023-02-14T05:44:11.969Z,100.00
2023-02-14T05:46:43.277Z,100.00
2023-02-14T05:49:11.334Z,100.00
2023-02-14T05:51:39.479Z,100.00
2023-02-14T05:54:08.876Z,100.00
2023-02-14T05:56:39.568Z,100.00
2023-02-14T05:59:08.111Z,100.00
2023-02-14T06:01:36.316Z,100.00
2023-02-14T06:04:04.670Z,100.00
2023-02-14T06:06:34.619Z,100.00
2023-02-14T06:09:04.263Z,100.00
2023-02-14T06:11:32.829Z,100.00
2023-02-14T06:14:01.858Z,100.00
2023-02-14T06:16:30.891Z,100.00
2023-02-14T06:18:59.000Z,100.00
2023-02-14T06:21:28.729Z,100.00
2023-02-14T06:23:56.881Z,100.00
2023-02-14T06:26:28.274Z,100.00
2023-02-14T06:28:58.836Z,100.00
2023-02-14T06:31:29.902Z,100.00
2023-02-14T06:34:01.803Z,100.00
2023-02-14T06:36:33.767Z,100.00
2023-02-14T06:39:05.800Z,100.00
2023-02-14T06:41:35.966Z,100.00
2023-02-14T06:44:07.093Z,100.00
2023-02-14T06:46:38.724Z,100.00
2023-02-14T06:49:11.014Z,100.00
2023-02-14T06:51:41.745Z,100.00
2023-02-14T06:54:14.833Z,99.67
2023-02-14T06:56:46.780Z,99.18
2023-02-14T06:59:19.793Z,98.69
2023-02-14T07:01:51.856Z,97.65
2023-02-14T07:04:23.816Z,96.39
2023-02-14T07:06:55.381Z,96.45
2023-02-14T07:09:26.808Z,96.30
2023-02-14T07:11:57.764Z,96.03
2023-02-14T07:14:29.898Z,94.73
2023-02-14T07:17:04.776Z,94.36
2023-02-14T07:19:36.884Z,93.49
2023-02-14T07:22:08.398Z,92.50
2023-02-14T07:24:39.837Z,92.05
2023-02-14T07:35:20.030Z,88.96
2023-02-14T07:37:51.653Z,88.82
2023-02-14T07:40:20.493Z,88.83
2023-02-14T07:42:56.272Z,88.10
2023-02-14T07:45:24.673Z,87.68
2023-02-14T07:47:55.230Z,86.53
2023-02-14T07:50:23.623Z,86.41
2023-02-14T07:52:51.888Z,85.49
2023-02-14T07:55:20.234Z,85.17
2023-02-14T07:57:49.325Z,84.33
2023-02-14T08:00:17.615Z,84.02
2023-02-14T08:02:47.583Z,82.96
2023-02-14T08:05:15.702Z,83.13
2023-02-14T08:07:44.455Z,83.03
2023-02-14T08:10:13.175Z,82.67
2023-02-14T08:13:01.936Z,82.30
2023-02-14T08:15:50.492Z,81.21
2023-02-14T08:18:20.922Z,81.00
2023-02-14T08:20:50.064Z,80.70
2023-02-14T08:23:19.556Z,80.63
2023-02-14T08:25:50.933Z,80.94
2023-02-14T08:28:31.661Z,81.21
2023-02-14T08:31:06.764Z,81.40
2023-02-14T08:33:34.822Z,81.32
2023-02-14T08:36:03.566Z,81.14
2023-02-14T08:38:31.926Z,80.55
2023-02-14T08:41:03.804Z,79.32
2023-02-14T08:43:34.392Z,78.42
2023-02-14T08:46:02.883Z,77.75
2023-02-14T08:48:31.439Z,78.21
2023-02-14T08:50:59.913Z,78.39
2023-02-14T08:53:28.536Z,78.51
2023-02-14T08:55:57.106Z,78.55
2023-02-14T08:58:25.191Z,78.84
2023-02-14T09:00:53.248Z,78.78
2023-02-14T09:03:21.658Z,78.55
2023-02-14T09:05:50.689Z,78.40
2023-02-14T09:08:18.760Z,78.10
2023-02-14T09:10:52.176Z,77.82
2023-02-14T09:13:20.499Z,77.85
2023-02-14T09:15:48.485Z,77.40
2023-02-14T09:18:18.304Z,77.21
2023-02-14T09:20:48.462Z,76.79
2023-02-14T09:23:16.490Z,76.69
2023-02-14T09:25:47.925Z,76.59
2023-02-14T09:28:17.258Z,76.18
2023-02-14T09:30:45.426Z,75.61
2023-02-14T09:33:13.462Z,75.12
2023-02-14T09:35:41.865Z,75.18
2023-02-14T09:38:11.010Z,75.23
2023-02-14T09:40:38.952Z,75.13
2023-02-14T09:43:07.336Z,75.21
2023-02-14T09:45:35.463Z,75.16
2023-02-14T09:48:28.228Z,75.45
2023-02-14T09:51:05.979Z,75.67
2023-02-14T09:53:35.311Z,75.46
2023-02-14T09:56:28.449Z,75.65
2023-02-14T09:59:01.178Z,75.45
2023-02-14T10:02:14.095Z,75.24
2023-02-14T10:04:54.889Z,75.30
2023-02-14T10:07:25.702Z,75.17
2023-02-14T10:10:30.983Z,75.04
2023-02-14T10:13:40.472Z,74.86
2023-02-14T10:16:14.349Z,75.12
2023-02-14T10:18:47.032Z,74.15
2023-02-14T10:21:47.922Z,73.75
2023-02-14T10:24:52.568Z,73.96
2023-02-14T10:27:32.869Z,73.59
2023-02-14T10:30:02.911Z,73.61
2023-02-14T10:32:49.073Z,73.44
2023-02-14T10:35:42.884Z,73.48
2023-02-14T10:38:30.104Z,72.74
2023-02-14T10:41:19.785Z,71.79
2023-02-14T10:44:09.010Z,72.04
2023-02-14T10:46:41.672Z,72.46
2023-02-14T10:49:31.560Z,72.14
2023-02-14T10:52:14.051Z,72.01
2023-02-14T10:54:43.737Z,72.04
2023-02-14T10:57:41.843Z,71.58
2023-02-14T11:00:35.560Z,71.28
2023-02-14T11:03:06.245Z,70.48
2023-02-14T11:05:38.749Z,70.21
2023-02-14T11:08:19.585Z,70.23
2023-02-14T11:10:48.449Z,70.43
2023-02-14T11:13:46.890Z,70.48
2023-02-14T11:16:30.836Z,70.61
2023-02-14T11:19:25.082Z,70.80
2023-02-14T11:21:54.760Z,70.97
2023-02-14T11:24:26.245Z,71.20
2023-02-14T11:27:10.582Z,71.35
2023-02-14T11:29:38.987Z,71.38
2023-02-14T11:32:23.254Z,71.71
2023-02-14T11:34:54.745Z,72.14
2023-02-14T11:37:23.042Z,72.32
2023-02-14T11:39:52.434Z,72.14
2023-02-14T11:42:43.126Z,71.60
2023-02-14T11:45:30.434Z,71.54
2023-02-14T11:48:37.385Z,71.30
2023-02-14T11:51:16.782Z,70.79
2023-02-14T11:53:52.019Z,70.85
2023-02-14T11:56:20.902Z,70.96
2023-02-14T11:59:03.411Z,70.70
2023-02-14T12:01:33.805Z,70.33
2023-02-14T12:04:05.246Z,70.39
2023-02-14T12:06:34.774Z,70.04
2023-02-14T12:09:43.722Z,69.91
2023-02-14T12:12:23.383Z,69.87
2023-02-14T12:14:51.357Z,70.14
2023-02-14T12:17:30.477Z,70.13
2023-02-14T12:20:21.539Z,70.04
2023-02-14T12:22:58.358Z,69.60
2023-02-14T12:25:27.346Z,69.32
2023-02-14T12:28:06.586Z,69.20
2023-02-14T12:30:35.320Z,68.92
2023-02-14T12:33:05.928Z,68.10
2023-02-14T12:35:54.836Z,68.01
2023-02-14T12:38:35.316Z,67.63
2023-02-14T12:41:40.208Z,67.58
2023-02-14T12:44:17.093Z,66.89
2023-02-14T12:47:07.312Z,66.36
2023-02-14T12:50:00.955Z,66.04
2023-02-14T12:52:50.506Z,65.28
2023-02-14T12:55:34.914Z,64.66
2023-02-14T12:58:44.857Z,64.43
2023-02-14T13:01:46.659Z,63.72
2023-02-14T13:04:41.046Z,63.93
2023-02-14T13:07:37.701Z,63.79
2023-02-14T13:10:21.311Z,63.52
2023-02-14T13:12:56.044Z,63.15
2023-02-14T13:15:28.787Z,63.26
2023-02-14T13:18:03.550Z,63.37
2023-02-14T13:20:49.401Z,62.57
2023-02-14T13:23:21.146Z,62.03
2023-02-14T13:25:59.338Z,62.07
2023-02-14T13:28:28.440Z,61.85
2023-02-14T13:30:59.147Z,61.82
2023-02-14T13:33:35.037Z,61.42
2023-02-14T13:36:06.624Z,61.34
2023-02-14T13:38:38.849Z,61.09
2023-02-14T13:41:06.841Z,61.17
2023-02-14T13:43:47.828Z,61.21
2023-02-14T13:46:39.273Z,60.93
2023-02-14T13:49:28.948Z,60.80
2023-02-14T13:52:03.786Z,60.60
2023-02-14T13:54:44.940Z,60.23
2023-02-14T13:57:42.470Z,59.95
2023-02-14T14:00:19.643Z,59.98
2023-02-14T14:02:48.689Z,59.72
2023-02-14T14:05:29.751Z,59.72
2023-02-14T14:08:16.576Z,59.97
2023-02-14T14:10:59.455Z,60.14
2023-02-14T14:13:42.820Z,61.13
2023-02-14T14:16:23.494Z,61.75
2023-02-14T14:18:52.647Z,62.23
2023-02-14T14:21:31.347Z,62.32
2023-02-14T14:24:18.201Z,62.80
2023-02-14T14:26:50.191Z,63.04
2023-02-14T14:29:39.756Z,62.87
2023-02-14T14:32:18.125Z,62.90
2023-02-14T14:34:53.731Z,63.16
2023-02-14T14:37:36.000Z,63.17
2023-02-14T14:40:06.406Z,63.28
2023-02-14T14:42:37.456Z,63.12
2023-02-14T14:45:18.874Z,63.01
2023-02-14T14:47:46.991Z,62.63
2023-02-14T14:50:23.091Z,62.39
2023-02-14T14:52:53.439Z,62.50
2023-02-14T14:55:25.932Z,62.18
2023-02-14T14:57:55.947Z,62.26
2023-02-14T15:00:33.501Z,62.40
2023-02-14T15:03:12.293Z,62.36
2023-02-14T15:05:43.252Z,62.62
2023-02-14T15:08:36.601Z,62.90
2023-02-14T15:11:38.094Z,63.26
2023-02-14T15:14:18.162Z,63.99
2023-02-14T15:16:51.027Z,64.35
2023-02-14T15:19:34.846Z,65.23
2023-02-14T15:22:16.030Z,65.68
2023-02-14T15:24:46.665Z,66.00
2023-02-14T15:27:19.182Z,66.30
2023-02-14T15:30:01.049Z,67.04
2023-02-14T15:32:34.960Z,66.97
2023-02-14T15:35:07.516Z,67.17
2023-02-14T15:37:38.957Z,67.39
2023-02-14T15:40:09.773Z,67.40
2023-02-14T15:42:43.357Z,67.53
2023-02-14T15:45:46.079Z,67.64
2023-02-14T15:48:29.030Z,67.80
2023-02-14T15:51:00.718Z,68.17
2023-02-14T15:53:58.264Z,68.39
2023-02-14T15:56:37.013Z,68.49
2023-02-14T15:59:13.993Z,68.65
2023-02-14T16:01:59.216Z,68.73
2023-02-14T16:04:33.034Z,69.02
2023-02-14T16:07:28.004Z,69.31
2023-02-14T16:10:22.081Z,69.35
2023-02-14T16:13:00.693Z,69.77
2023-02-14T16:15:33.275Z,70.02
2023-02-14T16:18:08.168Z,70.12
2023-02-14T16:20:43.993Z,70.59
2023-02-14T16:31:22.482Z,71.45
2023-02-14T16:33:50.709Z,71.52
2023-02-14T16:36:26.879Z,71.68
2023-02-14T16:38:55.190Z,71.91
2023-02-14T16:41:26.239Z,71.93
2023-02-14T16:43:54.870Z,71.99
2023-02-14T16:46:29.670Z,72.24
2023-02-14T16:48:57.834Z,72.28
2023-02-14T16:51:32.456Z,72.44
2023-02-14T16:54:06.630Z,72.52
2023-02-14T16:56:48.751Z,72.59
2023-02-14T16:59:16.899Z,73.18
2023-02-14T17:01:45.089Z,73.30
2023-02-14T17:04:13.508Z,73.64
2023-02-14T17:06:47.236Z,74.03
2023-02-14T17:09:24.420Z,74.32
2023-02-14T17:11:53.270Z,74.67
2023-02-14T17:14:24.248Z,75.03
2023-02-14T17:16:54.577Z,75.09
2023-02-14T17:19:22.606Z,75.42
2023-02-14T17:21:50.830Z,75.57
2023-02-14T17:24:19.290Z,75.67
2023-02-14T17:26:47.758Z,75.98
2023-02-14T17:29:15.729Z,76.19
2023-02-14T17:31:44.485Z,76.61
2023-02-14T17:34:12.770Z,76.74
2023-02-14T17:36:40.961Z,76.86
2023-02-14T17:39:09.109Z,77.42
2023-02-14T17:41:37.122Z,77.41
2023-02-14T17:44:09.999Z,77.64
2023-02-14T17:46:38.147Z,77.76
2023-02-14T17:49:06.885Z,77.85
2023-02-14T17:51:34.996Z,78.20
2023-02-14T17:54:03.156Z,78.39
2023-02-14T17:56:31.509Z,78.50
2023-02-14T17:58:59.995Z,78.78
2023-02-14T18:01:31.710Z,79.00
2023-02-14T18:04:00.296Z,79.19
2023-02-14T18:06:29.419Z,79.32
2023-02-14T18:08:57.684Z,79.55
2023-02-14T18:11:27.819Z,79.75
2023-02-14T18:13:56.280Z,79.75
2023-02-14T18:16:27.321Z,79.67
2023-02-14T18:18:55.461Z,79.79
2023-02-14T18:21:24.693Z,79.64
2023-02-14T18:23:55.701Z,79.40
2023-02-14T18:26:24.203Z,79.26
2023-02-14T18:28:52.630Z,79.37
2023-02-14T18:31:21.301Z,79.33
2023-02-14T18:33:50.157Z,79.25
2023-02-14T18:36:20.570Z,79.08
2023-02-14T18:38:48.939Z,78.96
2023-02-14T18:41:18.270Z,78.76
2023-02-14T18:43:46.563Z,78.51
2023-02-14T18:46:22.936Z,78.37
2023-02-14T18:48:51.096Z,77.94
2023-02-14T18:51:27.196Z,77.88
2023-02-14T18:53:56.555Z,77.87
2023-02-14T18:56:28.755Z,77.84
2023-02-14T18:59:01.224Z,77.61
2023-02-14T19:01:36.907Z,76.97
2023-02-14T19:04:06.843Z,76.92
2023-02-14T19:06:38.395Z,76.46
2023-02-14T19:09:14.477Z,76.35
2023-02-14T19:11:49.446Z,76.13
2023-02-14T19:14:18.531Z,75.94
2023-02-14T19:16:53.552Z,75.78
2023-02-14T19:19:23.400Z,75.69
2023-02-14T19:21:52.381Z,75.64
2023-02-14T19:24:21.859Z,75.46
2023-02-14T19:26:50.132Z,75.38
2023-02-14T19:29:20.441Z,74.97
2023-02-14T19:31:50.430Z,74.73
2023-02-14T19:34:20.225Z,74.50
2023-02-14T19:36:50.288Z,74.44
2023-02-14T19:39:20.598Z,73.97
2023-02-14T19:41:48.904Z,74.17
2023-02-14T19:44:18.660Z,74.01
2023-02-14T19:46:46.653Z,74.09
2023-02-14T19:49:18.531Z,73.94
2023-02-14T19:51:48.197Z,73.94
2023-02-14T19:54:19.832Z,73.93
2023-02-14T19:56:49.136Z,73.91
2023-02-14T19:59:21.956Z,73.79
2023-02-14T20:01:52.717Z,73.38
2023-02-14T20:04:26.071Z,73.25
2023-02-14T20:06:55.068Z,73.16
2023-02-14T20:09:23.806Z,73.22
2023-02-14T20:11:58.019Z,73.29
2023-02-14T20:14:28.712Z,73.12
2023-02-14T20:16:59.010Z,73.11
2023-02-14T20:19:30.036Z,72.90
2023-02-14T20:21:58.359Z,72.63
2023-02-14T20:24:28.874Z,72.43
2023-02-14T20:26:57.175Z,72.25
2023-02-14T20:29:25.299Z,72.33
2023-02-14T20:31:54.889Z,71.88
2023-02-14T20:34:23.930Z,71.40
2023-02-14T20:36:53.943Z,71.31
2023-02-14T20:39:23.669Z,70.78
2023-02-14T20:41:53.215Z,70.95
2023-02-14T20:44:21.902Z,70.30
2023-02-14T20:46:51.995Z,69.24
2023-02-14T20:49:21.781Z,69.44
2023-02-14T20:51:50.545Z,68.86
2023-02-14T20:54:19.298Z,69.13
2023-02-14T20:56:48.556Z,68.97
2023-02-14T20:59:19.340Z,69.10
2023-02-14T21:01:47.917Z,69.23
2023-02-14T21:04:16.930Z,69.28
2023-02-14T21:06:44.920Z,69.52
2023-02-14T21:09:14.038Z,69.73
2023-02-14T21:11:42.760Z,70.15
2023-02-14T21:14:11.855Z,70.32
2023-02-14T21:16:40.034Z,70.59
2023-02-14T21:19:08.942Z,71.05
2023-02-14T21:21:39.439Z,71.20
2023-02-14T21:24:12.640Z,71.22
2023-02-14T21:26:41.556Z,71.22
2023-02-14T21:29:10.096Z,71.32
2023-02-14T21:31:38.247Z,70.90
2023-02-14T21:34:07.074Z,71.06
2023-02-14T21:36:38.278Z,70.82
2023-02-14T21:39:07.704Z,70.99
2023-02-14T21:41:36.274Z,71.11
2023-02-14T21:44:04.656Z,71.18
2023-02-14T21:46:36.000Z,71.00
2023-02-14T21:49:24.410Z,71.17
2023-02-14T21:51:52.606Z,71.14
2023-02-14T21:54:22.725Z,70.82
2023-02-14T21:56:51.387Z,70.72
2023-02-14T21:59:19.683Z,70.77
2023-02-14T22:01:49.150Z,70.67
2023-02-14T22:04:17.284Z,70.42
2023-02-14T22:06:45.685Z,70.46
2023-02-14T22:09:18.981Z,70.26
2023-02-14T22:11:50.207Z,70.45
2023-02-14T22:14:19.057Z,70.47
2023-02-14T22:16:48.524Z,70.14
2023-02-14T22:19:16.832Z,70.23
2023-02-14T22:21:45.166Z,70.13
2023-02-14T22:24:13.570Z,70.04
2023-02-14T22:26:42.343Z,69.99
2023-02-14T22:29:13.529Z,70.12
2023-02-14T22:31:42.562Z,70.06
2023-02-14T22:34:12.701Z,70.16
2023-02-14T22:36:41.828Z,70.42
2023-02-14T22:39:11.832Z,70.54
2023-02-14T22:41:39.853Z,70.61
2023-02-14T22:44:08.385Z,70.49
2023-02-14T22:46:37.249Z,70.19
2023-02-14T22:49:06.075Z,70.14
2023-02-14T22:51:37.984Z,70.17
2023-02-14T22:54:13.551Z,70.15
2023-02-14T22:56:43.480Z,70.24
2023-02-14T22:59:22.763Z,70.18
2023-02-14T23:01:51.776Z,70.15
2023-02-14T23:04:21.856Z,70.40
2023-02-14T23:06:51.224Z,70.39
2023-02-14T23:09:19.878Z,70.48
2023-02-14T23:11:48.262Z,70.47
2023-02-14T23:14:35.686Z,70.28
2023-02-14T23:17:23.257Z,69.97
2023-02-14T23:20:10.372Z,68.28
2023-02-14T23:22:39.884Z,67.85
2023-02-14T23:25:09.782Z,67.44
2023-02-14T23:27:40.198Z,67.34
2023-02-14T23:30:11.526Z,66.88
2023-02-14T23:32:40.126Z,67.30
2023-02-14T23:35:08.148Z,67.83
2023-02-14T23:37:36.747Z,67.99
2023-02-14T23:40:06.790Z,68.60
2023-02-14T23:42:35.389Z,68.75
2023-02-14T23:45:23.700Z,69.05
2023-02-14T23:47:52.447Z,69.33
2023-02-14T23:50:20.704Z,69.47
2023-02-14T23:52:49.316Z,69.83
2023-02-14T23:55:19.402Z,69.98
2023-02-14T23:57:47.546Z,70.06
